sensor_id;sensor_type;location;lat;lon;timestamp;temperature;humidity
74792;SHT30;63319;46.046;17.802;2023-01-04T00:01:19;15.71;51.49
74792;SHT30;63319;46.046;17.802;2023-01-04T00:04:22;15.69;51.46
74792;SHT30;63319;46.046;17.802;2023-01-04T00:07:28;15.71;51.41
74792;SHT30;63319;46.046;17.802;2023-01-04T00:10:31;15.69;51.46
74792;SHT30;63319;46.046;17.802;2023-01-04T00:13:34;15.69;51.51
74792;SHT30;63319;46.046;17.802;2023-01-04T00:16:37;15.71;51.47
74792;SHT30;63319;46.046;17.802;2023-01-04T00:19:42;15.67;51.46
74792;SHT30;63319;46.046;17.802;2023-01-04T00:22:47;15.67;51.46
74792;SHT30;63319;46.046;17.802;2023-01-04T00:25:50;15.69;51.52
74792;SHT30;63319;46.046;17.802;2023-01-04T00:28:57;15.67;51.54
74792;SHT30;63319;46.046;17.802;2023-01-04T00:32:00;15.67;51.55
74792;SHT30;63319;46.046;17.802;2023-01-04T00:35:03;15.67;51.54
74792;SHT30;63319;46.046;17.802;2023-01-04T00:38:06;15.67;51.53
74792;SHT30;63319;46.046;17.802;2023-01-04T00:41:10;15.68;51.54
74792;SHT30;63319;46.046;17.802;2023-01-04T00:44:33;15.67;51.55
74792;SHT30;63319;46.046;17.802;2023-01-04T00:47:37;15.67;51.51
74792;SHT30;63319;46.046;17.802;2023-01-04T00:50:43;15.64;51.57
74792;SHT30;63319;46.046;17.802;2023-01-04T00:53:46;15.62;51.59
74792;SHT30;63319;46.046;17.802;2023-01-04T00:56:49;15.62;51.59
74792;SHT30;63319;46.046;17.802;2023-01-04T00:59:52;15.64;51.63
74792;SHT30;63319;46.046;17.802;2023-01-04T01:02:57;15.61;51.57
74792;SHT30;63319;46.046;17.802;2023-01-04T01:06:05;15.64;51.56
74792;SHT30;63319;46.046;17.802;2023-01-04T01:09:09;15.65;51.49
74792;SHT30;63319;46.046;17.802;2023-01-04T01:12:11;15.61;51.56
74792;SHT30;63319;46.046;17.802;2023-01-04T01:15:14;15.61;51.57
74792;SHT30;63319;46.046;17.802;2023-01-04T01:18:17;15.62;51.58
74792;SHT30;63319;46.046;17.802;2023-01-04T01:21:25;15.61;51.64
74792;SHT30;63319;46.046;17.802;2023-01-04T01:24:29;15.62;51.63
74792;SHT30;63319;46.046;17.802;2023-01-04T01:27:31;15.59;51.66
74792;SHT30;63319;46.046;17.802;2023-01-04T01:30:39;15.58;51.63
74792;SHT30;63319;46.046;17.802;2023-01-04T01:33:46;15.59;51.69
74792;SHT30;63319;46.046;17.802;2023-01-04T01:36:49;15.61;51.68
74792;SHT30;63319;46.046;17.802;2023-01-04T01:39:52;15.61;51.64
74792;SHT30;63319;46.046;17.802;2023-01-04T01:42:58;15.59;51.59
74792;SHT30;63319;46.046;17.802;2023-01-04T01:46:01;15.59;51.63
74792;SHT30;63319;46.046;17.802;2023-01-04T01:49:13;15.58;51.68
74792;SHT30;63319;46.046;17.802;2023-01-04T01:52:25;15.58;51.66
74792;SHT30;63319;46.046;17.802;2023-01-04T01:55:29;15.58;51.55
74792;SHT30;63319;46.046;17.802;2023-01-04T01:58:39;15.58;51.66
74792;SHT30;63319;46.046;17.802;2023-01-04T02:01:44;15.58;51.70
74792;SHT30;63319;46.046;17.802;2023-01-04T02:04:49;15.57;51.66
74792;SHT30;63319;46.046;17.802;2023-01-04T02:07:55;15.55;51.67
74792;SHT30;63319;46.046;17.802;2023-01-04T02:10:59;15.55;51.66
74792;SHT30;63319;46.046;17.802;2023-01-04T02:14:04;15.54;51.67
74792;SHT30;63319;46.046;17.802;2023-01-04T02:21:01;15.55;51.70
74792;SHT30;63319;46.046;17.802;2023-01-04T02:24:11;15.54;51.66
74792;SHT30;63319;46.046;17.802;2023-01-04T02:27:43;15.51;51.70
74792;SHT30;63319;46.046;17.802;2023-01-04T02:41:04;15.53;51.73
74792;SHT30;63319;46.046;17.802;2023-01-04T02:47:43;15.54;51.75
74792;SHT30;63319;46.046;17.802;2023-01-04T02:51:34;15.53;51.80
74792;SHT30;63319;46.046;17.802;2023-01-04T02:54:38;15.51;51.80
74792;SHT30;63319;46.046;17.802;2023-01-04T02:58:12;15.53;51.74
74792;SHT30;63319;46.046;17.802;2023-01-04T03:05:11;15.51;51.75
74792;SHT30;63319;46.046;17.802;2023-01-04T03:08:57;15.48;51.71
74792;SHT30;63319;46.046;17.802;2023-01-04T03:12:07;15.48;51.75
74792;SHT30;63319;46.046;17.802;2023-01-04T03:15:34;15.48;51.65
74792;SHT30;63319;46.046;17.802;2023-01-04T03:18:48;15.51;51.78
74792;SHT30;63319;46.046;17.802;2023-01-04T03:21:52;15.48;51.71
74792;SHT30;63319;46.046;17.802;2023-01-04T03:24:55;15.47;51.73
74792;SHT30;63319;46.046;17.802;2023-01-04T03:28:19;15.47;51.73
74792;SHT30;63319;46.046;17.802;2023-01-04T03:31:44;15.47;51.78
74792;SHT30;63319;46.046;17.802;2023-01-04T03:35:08;15.47;51.73
74792;SHT30;63319;46.046;17.802;2023-01-04T03:38:32;15.46;51.74
74792;SHT30;63319;46.046;17.802;2023-01-04T03:42:07;15.47;51.72
74792;SHT30;63319;46.046;17.802;2023-01-04T03:45:38;15.46;51.72
74792;SHT30;63319;46.046;17.802;2023-01-04T03:52:23;15.46;51.69
74792;SHT30;63319;46.046;17.802;2023-01-04T03:55:29;15.44;51.79
74792;SHT30;63319;46.046;17.802;2023-01-04T03:58:33;15.46;51.80
74792;SHT30;63319;46.046;17.802;2023-01-04T04:01:36;15.44;51.82
74792;SHT30;63319;46.046;17.802;2023-01-04T04:04:40;15.44;51.84
74792;SHT30;63319;46.046;17.802;2023-01-04T04:08:02;15.46;51.77
74792;SHT30;63319;46.046;17.802;2023-01-04T04:11:24;15.44;51.82
74792;SHT30;63319;46.046;17.802;2023-01-04T04:14:33;15.43;51.82
74792;SHT30;63319;46.046;17.802;2023-01-04T04:17:36;15.43;51.84
74792;SHT30;63319;46.046;17.802;2023-01-04T04:20:42;15.43;51.80
74792;SHT30;63319;46.046;17.802;2023-01-04T04:23:45;15.43;51.83
74792;SHT30;63319;46.046;17.802;2023-01-04T04:26:48;15.41;51.92
74792;SHT30;63319;46.046;17.802;2023-01-04T04:29:51;15.41;51.88
74792;SHT30;63319;46.046;17.802;2023-01-04T04:32:54;15.41;51.87
74792;SHT30;63319;46.046;17.802;2023-01-04T04:35:59;15.39;51.95
74792;SHT30;63319;46.046;17.802;2023-01-04T04:39:02;15.39;51.95
74792;SHT30;63319;46.046;17.802;2023-01-04T04:42:05;15.36;52.03
74792;SHT30;63319;46.046;17.802;2023-01-04T04:45:08;15.39;51.97
74792;SHT30;63319;46.046;17.802;2023-01-04T04:48:11;15.37;52.00
74792;SHT30;63319;46.046;17.802;2023-01-04T04:51:14;15.37;51.92
74792;SHT30;63319;46.046;17.802;2023-01-04T04:54:20;15.36;51.95
74792;SHT30;63319;46.046;17.802;2023-01-04T04:57:23;15.34;52.01
74792;SHT30;63319;46.046;17.802;2023-01-04T05:00:26;15.36;52.02
74792;SHT30;63319;46.046;17.802;2023-01-04T05:03:30;15.34;51.88
74792;SHT30;63319;46.046;17.802;2023-01-04T05:06:33;15.36;51.98
74792;SHT30;63319;46.046;17.802;2023-01-04T05:09:36;15.34;52.02
74792;SHT30;63319;46.046;17.802;2023-01-04T05:12:39;15.31;52.05
74792;SHT30;63319;46.046;17.802;2023-01-04T05:16:02;15.34;52.00
74792;SHT30;63319;46.046;17.802;2023-01-04T05:19:05;15.33;52.00
74792;SHT30;63319;46.046;17.802;2023-01-04T05:22:08;15.33;52.06
74792;SHT30;63319;46.046;17.802;2023-01-04T05:25:11;15.34;52.01
74792;SHT30;63319;46.046;17.802;2023-01-04T05:28:14;15.34;52.04
74792;SHT30;63319;46.046;17.802;2023-01-04T05:31:17;15.31;52.01
74792;SHT30;63319;46.046;17.802;2023-01-04T05:34:20;15.31;52.02
74792;SHT30;63319;46.046;17.802;2023-01-04T05:37:24;15.30;51.99
74792;SHT30;63319;46.046;17.802;2023-01-04T05:40:29;15.29;52.00
74792;SHT30;63319;46.046;17.802;2023-01-04T05:43:32;15.30;52.03
74792;SHT30;63319;46.046;17.802;2023-01-04T05:46:34;15.30;52.02
74792;SHT30;63319;46.046;17.802;2023-01-04T05:49:38;15.30;52.00
74792;SHT30;63319;46.046;17.802;2023-01-04T05:52:40;15.31;52.07
74792;SHT30;63319;46.046;17.802;2023-01-04T05:55:44;15.30;52.01
74792;SHT30;63319;46.046;17.802;2023-01-04T05:58:48;15.30;52.11
74792;SHT30;63319;46.046;17.802;2023-01-04T06:01:51;15.27;52.13
74792;SHT30;63319;46.046;17.802;2023-01-04T06:04:55;15.29;52.10
74792;SHT30;63319;46.046;17.802;2023-01-04T06:08:01;15.27;52.01
74792;SHT30;63319;46.046;17.802;2023-01-04T06:11:04;15.29;52.08
74792;SHT30;63319;46.046;17.802;2023-01-04T06:14:07;15.29;52.08
74792;SHT30;63319;46.046;17.802;2023-01-04T06:17:09;15.26;52.06
74792;SHT30;63319;46.046;17.802;2023-01-04T06:20:13;15.29;52.06
74792;SHT30;63319;46.046;17.802;2023-01-04T06:23:16;15.31;52.04
74792;SHT30;63319;46.046;17.802;2023-01-04T06:26:19;15.27;52.11
74792;SHT30;63319;46.046;17.802;2023-01-04T06:29:25;15.24;52.09
74792;SHT30;63319;46.046;17.802;2023-01-04T06:32:30;15.27;52.02
74792;SHT30;63319;46.046;17.802;2023-01-04T06:35:33;15.24;52.01
74792;SHT30;63319;46.046;17.802;2023-01-04T06:38:37;15.26;52.06
74792;SHT30;63319;46.046;17.802;2023-01-04T06:41:40;15.27;52.05
74792;SHT30;63319;46.046;17.802;2023-01-04T06:44:44;15.29;52.03
74792;SHT30;63319;46.046;17.802;2023-01-04T06:47:50;15.27;52.11
74792;SHT30;63319;46.046;17.802;2023-01-04T06:50:57;15.29;52.04
74792;SHT30;63319;46.046;17.802;2023-01-04T06:53:59;15.26;52.10
74792;SHT30;63319;46.046;17.802;2023-01-04T06:57:02;15.27;51.98
74792;SHT30;63319;46.046;17.802;2023-01-04T07:00:06;15.27;51.83
74792;SHT30;63319;46.046;17.802;2023-01-04T07:03:10;15.29;51.93
74792;SHT30;63319;46.046;17.802;2023-01-04T07:06:17;15.30;51.80
74792;SHT30;63319;46.046;17.802;2023-01-04T07:09:20;15.29;51.78
74792;SHT30;63319;46.046;17.802;2023-01-04T07:12:23;15.30;51.90
74792;SHT30;63319;46.046;17.802;2023-01-04T07:15:27;15.33;51.89
74792;SHT30;63319;46.046;17.802;2023-01-04T07:18:41;15.37;51.86
74792;SHT30;63319;46.046;17.802;2023-01-04T07:21:44;15.40;51.84
74792;SHT30;63319;46.046;17.802;2023-01-04T07:24:47;15.46;51.72
74792;SHT30;63319;46.046;17.802;2023-01-04T07:27:53;15.68;51.29
74792;SHT30;63319;46.046;17.802;2023-01-04T07:31:02;15.88;50.71
74792;SHT30;63319;46.046;17.802;2023-01-04T07:34:06;16.02;49.99
74792;SHT30;63319;46.046;17.802;2023-01-04T07:37:09;16.15;49.45
74792;SHT30;63319;46.046;17.802;2023-01-04T07:40:14;16.32;49.14
74792;SHT30;63319;46.046;17.802;2023-01-04T07:43:17;16.44;48.80
74792;SHT30;63319;46.046;17.802;2023-01-04T07:46:28;16.59;48.64
74792;SHT30;63319;46.046;17.802;2023-01-04T07:49:32;16.71;48.49
74792;SHT30;63319;46.046;17.802;2023-01-04T07:52:35;16.83;48.12
74792;SHT30;63319;46.046;17.802;2023-01-04T07:55:38;16.96;47.93
74792;SHT30;63319;46.046;17.802;2023-01-04T07:58:41;17.07;47.65
74792;SHT30;63319;46.046;17.802;2023-01-04T08:01:45;17.16;47.42
74792;SHT30;63319;46.046;17.802;2023-01-04T08:04:51;17.29;47.19
74792;SHT30;63319;46.046;17.802;2023-01-04T08:07:54;17.39;46.94
74792;SHT30;63319;46.046;17.802;2023-01-04T08:11:06;17.43;46.89
74792;SHT30;63319;46.046;17.802;2023-01-04T08:14:10;17.43;46.93
74792;SHT30;63319;46.046;17.802;2023-01-04T08:17:13;17.52;46.66
74792;SHT30;63319;46.046;17.802;2023-01-04T08:20:18;17.56;46.58
74792;SHT30;63319;46.046;17.802;2023-01-04T08:23:21;17.65;46.45
74792;SHT30;63319;46.046;17.802;2023-01-04T08:26:24;17.76;46.15
74792;SHT30;63319;46.046;17.802;2023-01-04T08:29:26;17.83;46.08
74792;SHT30;63319;46.046;17.802;2023-01-04T08:32:36;17.93;45.88
74792;SHT30;63319;46.046;17.802;2023-01-04T08:35:40;18.01;45.75
74792;SHT30;63319;46.046;17.802;2023-01-04T08:38:43;18.12;45.48
74792;SHT30;63319;46.046;17.802;2023-01-04T08:42:02;18.22;45.30
74792;SHT30;63319;46.046;17.802;2023-01-04T08:45:22;18.34;45.06
74792;SHT30;63319;46.046;17.802;2023-01-04T08:48:25;18.45;44.87
74792;SHT30;63319;46.046;17.802;2023-01-04T08:51:27;18.34;45.11
74792;SHT30;63319;46.046;17.802;2023-01-04T08:54:31;18.08;45.72
74792;SHT30;63319;46.046;17.802;2023-01-04T08:57:34;18.00;45.99
74792;SHT30;63319;46.046;17.802;2023-01-04T09:00:39;18.04;45.85
74792;SHT30;63319;46.046;17.802;2023-01-04T09:03:42;17.98;46.02
74792;SHT30;63319;46.046;17.802;2023-01-04T09:06:45;17.86;46.39
74792;SHT30;63319;46.046;17.802;2023-01-04T09:09:48;17.81;46.54
74792;SHT30;63319;46.046;17.802;2023-01-04T09:12:51;17.81;46.49
74792;SHT30;63319;46.046;17.802;2023-01-04T09:15:54;17.86;46.43
74792;SHT30;63319;46.046;17.802;2023-01-04T09:18:57;17.79;46.70
74792;SHT30;63319;46.046;17.802;2023-01-04T09:22:00;17.73;46.83
74792;SHT30;63319;46.046;17.802;2023-01-04T09:25:03;17.62;47.14
74792;SHT30;63319;46.046;17.802;2023-01-04T09:28:06;17.54;47.35
74792;SHT30;63319;46.046;17.802;2023-01-04T09:31:15;17.59;47.26
74792;SHT30;63319;46.046;17.802;2023-01-04T09:34:19;17.62;47.21
74792;SHT30;63319;46.046;17.802;2023-01-04T09:37:22;17.59;47.32
74792;SHT30;63319;46.046;17.802;2023-01-04T09:48:16;17.49;47.57
74792;SHT30;63319;46.046;17.802;2023-01-04T09:51:33;17.49;47.53
74792;SHT30;63319;46.046;17.802;2023-01-04T09:54:49;17.49;47.56
74792;SHT30;63319;46.046;17.802;2023-01-04T09:58:02;17.49;47.55
74792;SHT30;63319;46.046;17.802;2023-01-04T10:01:17;17.49;47.53
74792;SHT30;63319;46.046;17.802;2023-01-04T10:07:41;17.60;47.32
74792;SHT30;63319;46.046;17.802;2023-01-04T10:11:34;17.65;47.19
74792;SHT30;63319;46.046;17.802;2023-01-04T10:32:18;17.57;47.39
74792;SHT30;63319;46.046;17.802;2023-01-04T10:35:26;17.53;47.57
74792;SHT30;63319;46.046;17.802;2023-01-04T10:38:32;17.90;46.74
74792;SHT30;63319;46.046;17.802;2023-01-04T10:41:43;18.12;46.32
74792;SHT30;63319;46.046;17.802;2023-01-04T10:48:56;18.05;46.56
74792;SHT30;63319;46.046;17.802;2023-01-04T10:52:05;18.10;46.45
74792;SHT30;63319;46.046;17.802;2023-01-04T10:55:16;18.17;46.37
74792;SHT30;63319;46.046;17.802;2023-01-04T11:01:35;18.41;45.86
74792;SHT30;63319;46.046;17.802;2023-01-04T11:04:43;18.70;45.34
74792;SHT30;63319;46.046;17.802;2023-01-04T11:14:22;19.17;44.40
74792;SHT30;63319;46.046;17.802;2023-01-04T11:17:27;19.24;44.23
74792;SHT30;63319;46.046;17.802;2023-01-04T11:20:30;19.17;44.38
74792;SHT30;63319;46.046;17.802;2023-01-04T11:23:39;19.31;44.14
74792;SHT30;63319;46.046;17.802;2023-01-04T11:26:44;19.48;43.85
74792;SHT30;63319;46.046;17.802;2023-01-04T11:29:53;19.55;43.67
74792;SHT30;63319;46.046;17.802;2023-01-04T11:33:00;19.61;43.48
74792;SHT30;63319;46.046;17.802;2023-01-04T11:36:05;19.68;43.35
74792;SHT30;63319;46.046;17.802;2023-01-04T11:39:22;19.76;43.18
74792;SHT30;63319;46.046;17.802;2023-01-04T11:42:26;19.82;43.18
74792;SHT30;63319;46.046;17.802;2023-01-04T11:45:28;19.89;42.99
74792;SHT30;63319;46.046;17.802;2023-01-04T11:48:40;19.61;43.69
74792;SHT30;63319;46.046;17.802;2023-01-04T11:51:43;19.25;44.51
74792;SHT30;63319;46.046;17.802;2023-01-04T11:54:46;19.03;44.97
74792;SHT30;63319;46.046;17.802;2023-01-04T11:58:10;18.86;45.24
74792;SHT30;63319;46.046;17.802;2023-01-04T12:01:23;18.82;45.39
74792;SHT30;63319;46.046;17.802;2023-01-04T12:04:27;18.75;45.51
74792;SHT30;63319;46.046;17.802;2023-01-04T12:07:33;18.93;45.09
74792;SHT30;63319;46.046;17.802;2023-01-04T12:10:36;19.31;44.27
74792;SHT30;63319;46.046;17.802;2023-01-04T12:13:40;19.44;43.96
74792;SHT30;63319;46.046;17.802;2023-01-04T12:17:24;19.44;43.95
74792;SHT30;63319;46.046;17.802;2023-01-04T12:20:30;19.42;43.95
74792;SHT30;63319;46.046;17.802;2023-01-04T12:23:33;19.51;43.86
74792;SHT30;63319;46.046;17.802;2023-01-04T12:26:40;19.55;43.80
74792;SHT30;63319;46.046;17.802;2023-01-04T12:39:44;19.69;43.40
74792;SHT30;63319;46.046;17.802;2023-01-04T12:53:02;19.82;43.24
74792;SHT30;63319;46.046;17.802;2023-01-04T13:00:13;19.75;43.33
74792;SHT30;63319;46.046;17.802;2023-01-04T13:06:21;19.68;43.56
74792;SHT30;63319;46.046;17.802;2023-01-04T13:09:42;19.62;43.65
74792;SHT30;63319;46.046;17.802;2023-01-04T13:16:12;19.54;43.86
74792;SHT30;63319;46.046;17.802;2023-01-04T13:19:24;19.47;44.02
74792;SHT30;63319;46.046;17.802;2023-01-04T13:22:29;19.41;44.19
74792;SHT30;63319;46.046;17.802;2023-01-04T13:25:33;19.35;44.32
74792;SHT30;63319;46.046;17.802;2023-01-04T13:28:37;19.28;44.45
74792;SHT30;63319;46.046;17.802;2023-01-04T13:31:48;19.20;44.61
74792;SHT30;63319;46.046;17.802;2023-01-04T13:34:56;19.20;44.68
74792;SHT30;63319;46.046;17.802;2023-01-04T13:38:18;19.13;44.84
74792;SHT30;63319;46.046;17.802;2023-01-04T13:41:21;19.07;44.95
74792;SHT30;63319;46.046;17.802;2023-01-04T13:48:17;18.92;45.35
74792;SHT30;63319;46.046;17.802;2023-01-04T13:51:31;18.80;45.48
74792;SHT30;63319;46.046;17.802;2023-01-04T13:54:40;18.72;45.74
74792;SHT30;63319;46.046;17.802;2023-01-04T13:58:00;18.59;46.04
74792;SHT30;63319;46.046;17.802;2023-01-04T14:01:16;18.53;46.22
74792;SHT30;63319;46.046;17.802;2023-01-04T14:04:26;18.39;46.50
74792;SHT30;63319;46.046;17.802;2023-01-04T14:07:29;18.31;46.65
74792;SHT30;63319;46.046;17.802;2023-01-04T14:10:32;18.25;46.85
74792;SHT30;63319;46.046;17.802;2023-01-04T14:13:34;18.17;46.99
74792;SHT30;63319;46.046;17.802;2023-01-04T14:16:37;18.12;47.06
74792;SHT30;63319;46.046;17.802;2023-01-04T14:19:50;18.04;47.30
74792;SHT30;63319;46.046;17.802;2023-01-04T14:22:57;17.98;47.39
74792;SHT30;63319;46.046;17.802;2023-01-04T14:26:00;17.94;47.49
74792;SHT30;63319;46.046;17.802;2023-01-04T14:29:26;17.90;47.58
74792;SHT30;63319;46.046;17.802;2023-01-04T14:32:31;17.84;47.70
74792;SHT30;63319;46.046;17.802;2023-01-04T14:35:34;17.80;47.82
74792;SHT30;63319;46.046;17.802;2023-01-04T14:38:49;17.71;48.00
74792;SHT30;63319;46.046;17.802;2023-01-04T14:41:55;17.71;48.04
74792;SHT30;63319;46.046;17.802;2023-01-04T14:44:59;17.66;48.17
74792;SHT30;63319;46.046;17.802;2023-01-04T14:48:02;17.62;48.26
74792;SHT30;63319;46.046;17.802;2023-01-04T14:51:05;17.54;48.32
74792;SHT30;63319;46.046;17.802;2023-01-04T14:54:11;17.56;48.38
74792;SHT30;63319;46.046;17.802;2023-01-04T14:57:20;17.47;48.52
74792;SHT30;63319;46.046;17.802;2023-01-04T15:00:23;17.46;48.52
74792;SHT30;63319;46.046;17.802;2023-01-04T15:03:26;17.43;48.64
74792;SHT30;63319;46.046;17.802;2023-01-04T15:06:29;17.42;48.67
74792;SHT30;63319;46.046;17.802;2023-01-04T15:09:32;17.38;48.73
74792;SHT30;63319;46.046;17.802;2023-01-04T15:12:35;17.35;48.82
74792;SHT30;63319;46.046;17.802;2023-01-04T15:15:38;17.32;48.89
74792;SHT30;63319;46.046;17.802;2023-01-04T15:18:42;17.29;48.99
74792;SHT30;63319;46.046;17.802;2023-01-04T15:21:45;17.25;49.04
74792;SHT30;63319;46.046;17.802;2023-01-04T15:24:48;17.22;49.05
74792;SHT30;63319;46.046;17.802;2023-01-04T15:27:53;17.19;49.16
74792;SHT30;63319;46.046;17.802;2023-01-04T15:30:56;17.15;49.24
74792;SHT30;63319;46.046;17.802;2023-01-04T15:33:59;17.12;49.32
74792;SHT30;63319;46.046;17.802;2023-01-04T15:37:02;17.12;49.28
74792;SHT30;63319;46.046;17.802;2023-01-04T15:40:05;17.11;49.30
74792;SHT30;63319;46.046;17.802;2023-01-04T15:43:09;17.05;49.50
74792;SHT30;63319;46.046;17.802;2023-01-04T15:46:12;17.07;49.47
74792;SHT30;63319;46.046;17.802;2023-01-04T15:49:15;17.01;49.57
74792;SHT30;63319;46.046;17.802;2023-01-04T15:52:19;17.00;49.53
74792;SHT30;63319;46.046;17.802;2023-01-04T15:55:22;16.95;49.74
74792;SHT30;63319;46.046;17.802;2023-01-04T15:58:25;16.92;49.80
74792;SHT30;63319;46.046;17.802;2023-01-04T16:01:28;16.94;49.77
74792;SHT30;63319;46.046;17.802;2023-01-04T16:04:38;16.89;49.82
74792;SHT30;63319;46.046;17.802;2023-01-04T16:07:42;16.88;49.82
74792;SHT30;63319;46.046;17.802;2023-01-04T16:10:45;16.85;49.84
74792;SHT30;63319;46.046;17.802;2023-01-04T16:13:49;16.85;49.82
74792;SHT30;63319;46.046;17.802;2023-01-04T16:16:54;16.83;49.87
74792;SHT30;63319;46.046;17.802;2023-01-04T16:19:57;16.77;49.98
74792;SHT30;63319;46.046;17.802;2023-01-04T16:23:00;16.78;50.02
74792;SHT30;63319;46.046;17.802;2023-01-04T16:26:13;16.77;49.87
74792;SHT30;63319;46.046;17.802;2023-01-04T16:29:16;16.73;50.05
74792;SHT30;63319;46.046;17.802;2023-01-04T16:32:19;16.73;49.96
74792;SHT30;63319;46.046;17.802;2023-01-04T16:35:23;16.71;50.02
74792;SHT30;63319;46.046;17.802;2023-01-04T16:38:27;16.71;50.07
74792;SHT30;63319;46.046;17.802;2023-01-04T16:41:29;16.67;50.11
74792;SHT30;63319;46.046;17.802;2023-01-04T16:44:33;16.65;50.24
74792;SHT30;63319;46.046;17.802;2023-01-04T16:47:40;16.64;50.23
74792;SHT30;63319;46.046;17.802;2023-01-04T16:50:43;16.64;50.22
74792;SHT30;63319;46.046;17.802;2023-01-04T16:53:46;16.60;50.28
74792;SHT30;63319;46.046;17.802;2023-01-04T16:56:48;16.59;50.33
74792;SHT30;63319;46.046;17.802;2023-01-04T16:59:51;16.57;50.37
74792;SHT30;63319;46.046;17.802;2023-01-04T17:02:55;16.56;50.39
74792;SHT30;63319;46.046;17.802;2023-01-04T17:05:58;16.52;50.46
74792;SHT30;63319;46.046;17.802;2023-01-04T17:09:05;16.49;50.59
74792;SHT30;63319;46.046;17.802;2023-01-04T17:12:09;16.47;50.52
74792;SHT30;63319;46.046;17.802;2023-01-04T17:15:32;16.46;50.58
74792;SHT30;63319;46.046;17.802;2023-01-04T17:18:52;16.42;50.62
74792;SHT30;63319;46.046;17.802;2023-01-04T17:21:56;16.42;50.68
74792;SHT30;63319;46.046;17.802;2023-01-04T17:24:59;16.40;50.76
74792;SHT30;63319;46.046;17.802;2023-01-04T17:28:02;16.40;50.75
74792;SHT30;63319;46.046;17.802;2023-01-04T17:31:12;16.36;50.80
74792;SHT30;63319;46.046;17.802;2023-01-04T17:34:15;16.32;50.86
74792;SHT30;63319;46.046;17.802;2023-01-04T17:37:24;16.30;50.86
74792;SHT30;63319;46.046;17.802;2023-01-04T17:40:28;16.27;50.86
74792;SHT30;63319;46.046;17.802;2023-01-04T17:43:32;16.27;50.89
74792;SHT30;63319;46.046;17.802;2023-01-04T17:46:37;16.26;50.90
74792;SHT30;63319;46.046;17.802;2023-01-04T17:49:40;16.22;51.01
74792;SHT30;63319;46.046;17.802;2023-01-04T17:52:43;16.23;51.01
74792;SHT30;63319;46.046;17.802;2023-01-04T17:55:50;16.17;51.04
74792;SHT30;63319;46.046;17.802;2023-01-04T17:58:53;16.17;51.11
74792;SHT30;63319;46.046;17.802;2023-01-04T18:01:57;16.16;51.16
74792;SHT30;63319;46.046;17.802;2023-01-04T18:05:01;16.16;51.19
74792;SHT30;63319;46.046;17.802;2023-01-04T18:08:05;16.13;51.27
74792;SHT30;63319;46.046;17.802;2023-01-04T18:11:11;16.10;51.24
74792;SHT30;63319;46.046;17.802;2023-01-04T18:14:15;16.09;51.33
74792;SHT30;63319;46.046;17.802;2023-01-04T18:17:20;16.09;51.30
74792;SHT30;63319;46.046;17.802;2023-01-04T18:20:31;16.06;51.34
74792;SHT30;63319;46.046;17.802;2023-01-04T18:23:35;16.02;51.37
74792;SHT30;63319;46.046;17.802;2023-01-04T18:26:39;16.02;51.37
74792;SHT30;63319;46.046;17.802;2023-01-04T18:30:03;15.99;51.42
74792;SHT30;63319;46.046;17.802;2023-01-04T18:33:08;15.99;51.52
74792;SHT30;63319;46.046;17.802;2023-01-04T18:36:12;15.99;51.54
74792;SHT30;63319;46.046;17.802;2023-01-04T18:39:16;15.94;51.55
74792;SHT30;63319;46.046;17.802;2023-01-04T18:42:24;15.95;51.52
74792;SHT30;63319;46.046;17.802;2023-01-04T18:45:29;15.92;51.55
74792;SHT30;63319;46.046;17.802;2023-01-04T18:48:35;15.94;51.65
74792;SHT30;63319;46.046;17.802;2023-01-04T18:51:39;15.87;51.65
74792;SHT30;63319;46.046;17.802;2023-01-04T18:54:43;15.87;51.59
74792;SHT30;63319;46.046;17.802;2023-01-04T18:57:50;15.87;51.67
74792;SHT30;63319;46.046;17.802;2023-01-04T19:01:07;15.85;51.61
74792;SHT30;63319;46.046;17.802;2023-01-04T19:04:12;15.82;51.79
74792;SHT30;63319;46.046;17.802;2023-01-04T19:07:16;15.82;51.72
74792;SHT30;63319;46.046;17.802;2023-01-04T19:10:21;15.82;51.77
74792;SHT30;63319;46.046;17.802;2023-01-04T19:13:25;15.82;51.76
74792;SHT30;63319;46.046;17.802;2023-01-04T19:16:30;15.79;51.78
74792;SHT30;63319;46.046;17.802;2023-01-04T19:19:34;15.78;51.85
74792;SHT30;63319;46.046;17.802;2023-01-04T19:22:38;15.75;51.86
74792;SHT30;63319;46.046;17.802;2023-01-04T19:25:42;15.75;51.93
74792;SHT30;63319;46.046;17.802;2023-01-04T19:28:51;15.75;51.91
74792;SHT30;63319;46.046;17.802;2023-01-04T19:31:58;15.69;51.95
74792;SHT30;63319;46.046;17.802;2023-01-04T19:35:05;15.71;51.97
74792;SHT30;63319;46.046;17.802;2023-01-04T19:38:11;15.71;51.98
74792;SHT30;63319;46.046;17.802;2023-01-04T19:41:18;15.69;51.96
74792;SHT30;63319;46.046;17.802;2023-01-04T19:44:35;15.67;52.02
74792;SHT30;63319;46.046;17.802;2023-01-04T19:47:39;15.68;51.98
74792;SHT30;63319;46.046;17.802;2023-01-04T19:50:44;15.67;51.95
74792;SHT30;63319;46.046;17.802;2023-01-04T19:53:50;15.64;51.98
74792;SHT30;63319;46.046;17.802;2023-01-04T19:56:55;15.64;52.06
74792;SHT30;63319;46.046;17.802;2023-01-04T19:59:59;15.62;52.09
74792;SHT30;63319;46.046;17.802;2023-01-04T20:03:03;15.61;52.06
74792;SHT30;63319;46.046;17.802;2023-01-04T20:06:10;15.59;52.11
74792;SHT30;63319;46.046;17.802;2023-01-04T20:09:15;15.58;52.09
74792;SHT30;63319;46.046;17.802;2023-01-04T20:12:23;15.59;52.16
74792;SHT30;63319;46.046;17.802;2023-01-04T20:15:27;15.58;52.13
74792;SHT30;63319;46.046;17.802;2023-01-04T20:18:34;15.55;52.07
74792;SHT30;63319;46.046;17.802;2023-01-04T20:21:41;15.57;52.06
74792;SHT30;63319;46.046;17.802;2023-01-04T20:24:46;15.55;52.05
74792;SHT30;63319;46.046;17.802;2023-01-04T20:27:52;15.53;52.08
74792;SHT30;63319;46.046;17.802;2023-01-04T20:31:01;15.53;52.02
74792;SHT30;63319;46.046;17.802;2023-01-04T20:34:05;15.53;52.03
74792;SHT30;63319;46.046;17.802;2023-01-04T20:37:09;15.54;52.09
74792;SHT30;63319;46.046;17.802;2023-01-04T20:40:15;15.53;52.18
74792;SHT30;63319;46.046;17.802;2023-01-04T20:43:20;15.50;52.03
74792;SHT30;63319;46.046;17.802;2023-01-04T20:46:36;15.51;52.19
74792;SHT30;63319;46.046;17.802;2023-01-04T20:49:42;15.47;52.15
74792;SHT30;63319;46.046;17.802;2023-01-04T20:52:49;15.46;52.13
74792;SHT30;63319;46.046;17.802;2023-01-04T20:55:54;15.44;52.14
74792;SHT30;63319;46.046;17.802;2023-01-04T20:59:01;15.47;52.14
74792;SHT30;63319;46.046;17.802;2023-01-04T21:02:08;15.46;52.09